Dixie, Washington
Current Conditions -  °F | °C
As of 11:53 AM on Friday 31 Oct 2014 (Local Time) from KALW Reporting Station
Overcast Overcast  
Wind Chill: 60°   Ceiling: 10000
Heat Index: 60°   Visibility: 9mi
Dew Point: 49°   Wind: 5mph
Humidity: 67%   Direction: 290°WNW
Pressure: 29.73"   Gusts: NA
Location:  46.14°N, 118.16°W
Report Text: KALW 311853Z 29004KT 9SM OVC100 16/09 A2973 RMK AO2 SLP068 T01560094
Loading
Personal Weather Stations






























Interactive Weather Map
Tropical Storm Tracking
New forecast layout! Learn more

10-Day Weather Forecast

Advertisements
Track Severe Weather on mobile